Stewart International Airport
KSWF : now visible

Airfield :











YOU CAN JOIN US ON...

 
LOGIN :

Register | Disclaimer

   EN    FR    IT 

 









Legend :    VFR   Marginal VFR   IFR   Intensive IFR   Very Intensive IFR
Visi :
Ceiling :
>= 8 km
>= 3000ft
5 to 8 km
1000 to 3000 ft
1500m to 5 km
500 to 1000 ft
800 to 1500m
200 to 500 ft
< 800m
< 200 ft
Symbols :   Thunderstorms  Fog  Heavy snow  Heavy precipitations  Wind > 20 kt







- Airport Elevation : 491 ft
- IATA code : SWF


KSWF - Stewart International

CURRENT METAR :
  • 201945Z 30008KT 10SM FEW060 31/19 A3007

EXPIRED METARs :
  • 201845Z 26007KT 10SM FEW060 30/17 A3009
  • 201745Z 22006KT 10SM SCT060 28/18 A3010

TAF KSWF
Valid from the 20 at 19:00 until the 22 at 00:00 UTC


201901Z 2019/2124 23006KT P6SM FEW050 BKN250
FM202300 19005KT P6SM SCT035 SCT060
FM210500 VRB02KT P6SM VCSH BKN035 BKN080
FM211000 21006KT P6SM VCTS BKN040CB BKN090
FM211600 21006KT P6SM SCT035 BKN050 BKN090
PROB30 2116/2118 4SM -TSRA OVC050CB AMD NOT SKED
No reported NOTAMs for that airfield.



MET'MAP, your aeronautical weather chart ! - Copyright ORBIFLY December 2007 - Disclaimer

ORBIFLY MET'MAP TEAM :

Programming & Development : Alexandra Zaïnal
Concept & Development : Baudouin d'Aumeries
Co-Development & Prog : Marc-Olivier Méhu
Technical & hardware support : Manuel Goepfert

Contact : metmap@orbifly.com




SOURCES & CREDITS :

   NOAA       Earth
Advisory